Time;durP1;ratioP1;P1;durP2;ratioP2;P2;SDS_P1;SDS_P2;PMS_P1;PMS_P2;Temp;Humidity;BMP_temperature;BMP_pressure;BME280_temperature;BME280_humidity;BME280_pressure;Samples;Min_cycle;Max_cycle;Signal;HPM_P1;HPM_P2
2023/11/10 00:01:44;;;;;;;;;0.00;0.00;;;;;10.55;100.00;99895.56;5060868;28;45451;-82
2023/11/10 00:04:12;;;;;;;;;0.00;0.00;;;;;10.49;100.00;99896.66;5059422;28;73249;-81
2023/11/10 00:06:37;;;;;;;;;0.00;0.00;;;;;10.50;100.00;99902.75;5079032;28;45323;-82
2023/11/10 00:09:04;;;;;;;;;0.00;0.00;;;;;10.60;100.00;99881.44;5078618;28;45408;-81
2023/11/10 00:11:29;;;;;;;;;0.00;0.00;;;;;10.62;100.00;99900.47;5061065;28;45388;-82
2023/11/10 00:13:55;;;;;;;;;0.00;0.00;;;;;10.56;100.00;99892.91;5079154;28;45246;-82
2023/11/10 00:16:20;;;;;;;;;0.00;0.00;;;;;10.54;100.00;99892.13;5077616;28;45505;-81
2023/11/10 00:18:45;;;;;;;;;0.00;0.00;;;;;10.56;100.00;99898.09;5060231;28;59548;-81
2023/11/10 00:21:19;;;;;;;;;1.00;0.00;;;;;10.57;100.00;99885.97;5059942;28;68452;-81
2023/11/10 00:23:44;;;;;;;;;0.00;0.00;;;;;10.53;100.00;99898.25;5042966;28;45420;-82
2023/11/10 00:26:18;;;;;;;;;0.00;0.00;;;;;10.53;100.00;99898.25;5068112;27;69445;-81
2023/11/10 00:28:43;;;;;;;;;0.00;0.00;;;;;10.58;100.00;99888.47;5080899;27;45236;-81
2023/11/10 00:31:09;;;;;;;;;0.00;0.00;;;;;10.54;100.00;99896.50;5098063;27;76129;-82
2023/11/10 00:33:34;;;;;;;;;0.00;0.00;;;;;10.51;100.00;99894.00;5079807;27;68226;-81
2023/11/10 00:35:59;;;;;;;;;0.00;0.00;;;;;10.53;100.00;99893.06;5097899;27;62142;-82
2023/11/10 00:38:25;;;;;;;;;0.00;0.00;;;;;10.50;100.00;99893.16;5087559;27;70433;-82
2023/11/10 00:40:51;;;;;;;;;0.00;0.00;;;;;10.49;100.00;99895.84;5040414;28;46029;-82
2023/11/10 00:43:16;;;;;;;;;0.00;0.00;;;;;10.42;100.00;99892.66;5058182;28;73174;-81
2023/11/10 00:45:41;;;;;;;;;0.00;0.00;;;;;10.43;100.00;99889.13;5060760;28;45377;-82
2023/11/10 00:48:07;;;;;;;;;0.00;0.00;;;;;10.41;100.00;99888.34;5077455;28;61217;-81
2023/11/10 00:50:32;;;;;;;;;0.00;0.00;;;;;10.40;100.00;99884.91;5059271;28;74423;-82
2023/11/10 00:52:57;;;;;;;;;0.00;0.00;;;;;10.38;100.00;99889.34;5060347;28;45430;-81
2023/11/10 00:55:23;;;;;;;;;0.00;0.00;;;;;10.39;100.00;99884.97;5059279;28;66346;-81
2023/11/10 00:57:48;;;;;;;;;0.00;0.00;;;;;10.29;100.00;99881.88;5043473;28;45358;-82
2023/11/10 01:00:14;;;;;;;;;0.00;0.00;;;;;10.32;100.00;99876.56;5059582;28;61469;-82
2023/11/10 01:02:39;;;;;;;;;0.00;0.00;;;;;10.25;100.00;99873.34;5059481;28;45514;-81
2023/11/10 01:05:05;;;;;;;;;0.00;0.00;;;;;10.28;100.00;99872.38;5059630;28;52472;-82
2023/11/10 01:07:30;;;;;;;;;0.00;0.00;;;;;10.24;100.00;99866.44;5059908;28;45458;-81
2023/11/10 01:09:55;;;;;;;;;0.00;0.00;;;;;10.24;100.00;99863.00;5060256;27;76760;-81
2023/11/10 01:12:20;;;;;;;;;0.00;0.00;;;;;10.21;100.00;99863.97;5097612;27;68779;-82
2023/11/10 01:14:46;;;;;;;;;0.00;0.00;;;;;10.22;100.00;99870.88;5079121;27;60579;-81
2023/11/10 01:17:11;;;;;;;;;0.00;0.00;;;;;10.24;100.00;99868.22;5079720;27;45342;-82
2023/11/10 01:19:37;;;;;;;;;0.00;0.00;;;;;10.21;100.00;99861.38;5080088;27;48141;-81
2023/11/10 01:22:03;;;;;;;;;0.00;0.00;;;;;10.19;100.00;99863.19;5098293;27;45456;-82
2023/11/10 01:24:28;;;;;;;;;0.00;0.00;;;;;10.23;100.00;99867.38;5098311;27;45487;-82
2023/11/10 01:26:54;;;;;;;;;0.00;0.00;;;;;10.16;100.00;99865.94;5098156;27;45353;-82
2023/11/10 01:29:19;;;;;;;;;0.00;0.00;;;;;10.13;100.00;99881.66;5079046;27;67105;-82
2023/11/10 01:31:44;;;;;;;;;0.00;0.00;;;;;10.13;100.00;99863.44;5097612;27;49379;-81
2023/11/10 01:34:10;;;;;;;;;0.00;0.00;;;;;10.13;100.00;99865.22;5078988;27;63203;-81
2023/11/10 01:36:35;;;;;;;;;0.33;0.33;;;;;10.15;100.00;99866.00;5097822;27;60961;-81
2023/11/10 01:39:02;;;;;;;;;0.00;0.00;;;;;10.18;100.00;99873.69;5097805;27;47083;-82
2023/11/10 01:41:28;;;;;;;;;0.00;0.00;;;;;10.15;100.00;99868.59;5080608;27;45483;-81
2023/11/10 01:43:54;;;;;;;;;0.00;0.00;;;;;10.16;100.00;99870.28;5096879;27;68281;-81
2023/11/10 01:46:40;;;;;;;;;0.00;0.00;;;;;10.14;100.00;99872.97;5079526;27;45423;-83
2023/11/10 01:49:06;;;;;;;;;0.00;0.00;;;;;10.14;100.00;99878.16;5079679;27;45480;-81
2023/11/10 01:51:31;;;;;;;;;0.00;0.00;;;;;10.08;100.00;99874.06;5079531;27;45339;-82
2023/11/10 01:53:57;;;;;;;;;0.00;0.00;;;;;10.09;100.00;99880.09;5078570;27;66253;-81
2023/11/10 01:56:23;;;;;;;;;0.00;0.00;;;;;10.12;100.00;99881.72;5079959;27;51202;-82
2023/11/10 01:58:49;;;;;;;;;0.00;0.00;;;;;10.13;100.00;99876.44;5097616;27;46629;-81
2023/11/10 02:01:15;;;;;;;;;0.00;0.00;;;;;10.11;100.00;99888.69;5079332;27;45337;-81
2023/11/10 02:03:40;;;;;;;;;0.00;0.00;;;;;10.12;100.00;99879.09;5079669;27;45411;-81
2023/11/10 02:06:08;;;;;;;;;0.00;0.00;;;;;10.13;100.00;99883.41;5080484;27;45563;-81
2023/11/10 02:08:34;;;;;;;;;0.00;0.00;;;;;10.13;100.00;99884.25;5090441;27;45492;-81
2023/11/10 02:10:59;;;;;;;;;0.00;0.00;;;;;10.10;100.00;99881.75;5058850;28;45510;-80
2023/11/10 02:13:25;;;;;;;;;0.00;0.00;;;;;10.11;100.00;99880.03;5076463;28;66413;-82
2023/11/10 02:15:50;;;;;;;;;0.00;0.00;;;;;10.10;100.00;99880.94;5058801;28;45480;-82
2023/11/10 02:18:16;;;;;;;;;0.00;0.00;;;;;10.08;100.00;99871.44;5077468;28;51136;-81
2023/11/10 02:20:41;;;;;;;;;0.00;0.00;;;;;10.13;100.00;99876.44;5058945;28;45542;-81
2023/11/10 02:23:08;;;;;;;;;0.00;0.00;;;;;10.12;100.00;99869.53;5058882;28;45417;-81
2023/11/10 02:25:34;;;;;;;;;0.00;0.00;;;;;10.11;100.00;99873.06;5062546;27;45410;-81
2023/11/10 02:27:59;;;;;;;;;0.00;0.00;;;;;10.10;100.00;99866.16;5079085;27;45506;-81
2023/11/10 02:30:24;;;;;;;;;0.00;0.00;;;;;10.07;100.00;99869.75;5078076;27;70862;-81
2023/11/10 02:32:49;;;;;;;;;0.00;0.00;;;;;10.02;100.00;99869.09;5095199;27;69184;-82
2023/11/10 02:35:15;;;;;;;;;0.00;0.00;;;;;10.01;100.00;99862.22;5095383;27;65795;-81
2023/11/10 02:37:40;;;;;;;;;0.00;0.00;;;;;9.95;100.00;99861.59;5078321;27;75077;-81
2023/11/10 02:40:06;;;;;;;;;0.00;0.00;;;;;9.95;100.00;99851.19;5077711;27;71184;-81
2023/11/10 02:42:33;;;;;;;;;0.00;0.00;;;;;9.94;100.00;99852.97;5078778;27;45567;-81
2023/11/10 02:44:59;;;;;;;;;0.00;0.00;;;;;9.89;100.00;99847.09;5078382;27;45372;-82
2023/11/10 02:47:24;;;;;;;;;0.00;0.00;;;;;9.85;100.00;99853.31;5096885;27;47180;-82
2023/11/10 02:49:49;;;;;;;;;0.00;0.00;;;;;9.86;100.00;99844.59;5078956;27;45357;-82
2023/11/10 02:52:15;;;;;;;;;0.00;0.00;;;;;9.86;100.00;99842.00;5078778;27;45392;-81
2023/11/10 02:54:40;;;;;;;;;0.00;0.00;;;;;9.87;100.00;99839.34;5078919;27;45436;-81
2023/11/10 02:57:05;;;;;;;;;0.00;0.00;;;;;9.80;100.00;99857.84;5095991;27;70650;-82
2023/11/10 02:59:31;;;;;;;;;0.00;0.00;;;;;9.83;100.00;99832.59;5077613;27;73364;-81
2023/11/10 03:01:56;;;;;;;;;0.00;0.00;;;;;9.83;100.00;99852.56;5095766;27;66597;-81
2023/11/10 03:04:21;;;;;;;;;0.00;0.00;;;;;9.80;100.00;99850.91;5096065;27;66746;-81
2023/11/10 03:06:48;;;;;;;;;0.00;0.00;;;;;9.81;100.00;99860.41;5096043;27;74286;-81
2023/11/10 03:09:14;;;;;;;;;0.00;0.00;;;;;9.78;100.00;99867.47;5084340;27;45458;-81
2023/11/10 03:11:39;;;;;;;;;0.00;0.00;;;;;9.81;100.00;99864.75;5076636;28;45220;-81
2023/11/10 03:14:06;;;;;;;;;4.00;0.00;;;;;9.74;100.00;99871.09;5057867;28;45424;-82
2023/11/10 03:16:31;;;;;;;;;0.00;0.00;;;;;9.74;100.00;99869.34;5076423;28;46721;-81
2023/11/10 03:18:57;;;;;;;;;0.00;0.00;;;;;9.75;100.00;99880.56;5058543;28;47468;-81
2023/11/10 03:21:23;;;;;;;;;0.00;0.00;;;;;9.76;100.00;99870.13;5076350;28;46010;-81
2023/11/10 03:23:49;;;;;;;;;0.00;0.00;;;;;9.79;100.00;99871.78;5076400;28;45374;-81
2023/11/10 03:26:14;;;;;;;;;0.00;0.00;;;;;9.78;100.00;99881.31;5075925;28;46466;-81
2023/11/10 03:28:39;;;;;;;;;0.00;0.00;;;;;9.76;100.00;99874.47;5074663;28;69712;-82
2023/11/10 03:31:08;;;;;;;;;0.00;0.00;;;;;9.79;100.00;99877.81;5058368;28;45381;-81
2023/11/10 03:33:34;;;;;;;;;0.00;0.00;;;;;9.79;100.00;99862.22;5058101;28;45572;-81
2023/11/10 03:36:02;;;;;;;;;0.00;0.00;;;;;9.80;100.00;99861.28;5057691;28;47067;-81
2023/11/10 03:38:28;;;;;;;;;0.00;0.00;;;;;9.81;100.00;99854.38;5058055;28;45384;-81
2023/11/10 03:40:53;;;;;;;;;0.00;0.00;;;;;9.81;100.00;99856.97;5075631;28;60938;-81
2023/11/10 03:43:18;;;;;;;;;0.00;0.00;;;;;9.79;100.00;99853.59;5076037;27;65269;-81
2023/11/10 03:45:44;;;;;;;;;0.00;0.00;;;;;9.80;100.00;99852.66;5096360;27;47923;-81
2023/11/10 03:48:09;;;;;;;;;0.00;0.00;;;;;9.81;100.00;99851.75;5077572;27;61985;-81
2023/11/10 03:50:34;;;;;;;;;0.00;0.00;;;;;9.76;100.00;99845.91;5094097;27;70281;-81
2023/11/10 03:53:00;;;;;;;;;0.00;0.00;;;;;9.79;100.00;99846.63;5095622;27;62304;-81
2023/11/10 03:55:26;;;;;;;;;0.00;0.00;;;;;9.73;100.00;99846.00;5095782;27;46042;-81
2023/11/10 03:57:51;;;;;;;;;0.00;0.00;;;;;9.69;100.00;99851.34;5095255;27;73174;-82
2023/11/10 04:00:18;;;;;;;;;0.00;0.00;;;;;9.72;100.00;99854.72;5095552;27;59059;-82
2023/11/10 04:02:44;;;;;;;;;0.00;0.00;;;;;9.79;100.00;99843.19;5096294;27;45461;-81
2023/11/10 04:05:11;;;;;;;;;0.00;0.00;;;;;9.76;100.00;99840.69;5096176;27;45650;-82
2023/11/10 04:07:36;;;;;;;;;0.00;0.00;;;;;9.72;100.00;99844.34;5077968;27;45662;-81
2023/11/10 04:10:02;;;;;;;;;0.00;0.00;;;;;9.80;100.00;99839.66;5058624;28;45216;-81
2023/11/10 04:12:27;;;;;;;;;0.00;0.00;;;;;9.79;100.00;99838.00;5079249;28;45313;-81
2023/11/10 04:14:54;;;;;;;;;0.00;0.00;;;;;9.80;100.00;99842.25;5079106;28;46418;-81
2023/11/10 04:17:20;;;;;;;;;0.00;0.00;;;;;9.83;100.00;99835.19;5079184;28;45548;-80
2023/11/10 04:19:45;;;;;;;;;0.00;0.00;;;;;9.80;100.00;99842.25;5060864;28;45508;-81
2023/11/10 04:22:11;;;;;;;;;0.00;0.00;;;;;9.76;100.00;99848.50;5079025;28;45536;-81
2023/11/10 04:24:36;;;;;;;;;0.00;0.00;;;;;9.76;100.00;99841.53;5059230;28;64703;-81
2023/11/10 04:27:02;;;;;;;;;0.00;0.00;;;;;9.77;100.00;99834.56;5043717;28;71171;-81
2023/11/10 04:29:28;;;;;;;;;0.00;0.00;;;;;9.72;100.00;99828.75;5040545;28;45585;-82
2023/11/10 04:31:53;;;;;;;;;0.00;0.00;;;;;9.75;100.00;99831.19;5058456;28;45410;-81
2023/11/10 04:34:19;;;;;;;;;0.00;0.00;;;;;9.78;100.00;99826.72;5058571;28;45440;-81
2023/11/10 04:36:46;;;;;;;;;0.00;0.00;;;;;9.77;100.00;99835.44;5040843;28;45332;-81
2023/11/10 04:39:12;;;;;;;;;0.00;0.00;;;;;9.74;100.00;99827.75;5058102;28;45302;-82
2023/11/10 04:41:38;;;;;;;;;0.00;0.00;;;;;9.75;100.00;99826.88;5040492;28;45558;-81
2023/11/10 04:44:05;;;;;;;;;0.00;0.00;;;;;9.72;100.00;99818.34;5057813;27;46663;-81
2023/11/10 04:46:31;;;;;;;;;0.00;0.00;;;;;9.85;100.00;99827.34;5040393;28;45485;-81
2023/11/10 04:48:57;;;;;;;;;0.00;0.00;;;;;9.82;100.00;99828.28;5058483;28;45314;-81
2023/11/10 04:51:22;;;;;;;;;0.00;0.00;;;;;9.87;100.00;99812.53;5058238;28;45351;-81
2023/11/10 04:53:47;;;;;;;;;0.00;0.00;;;;;9.93;100.00;99819.22;5057811;28;46448;-81
2023/11/10 04:56:14;;;;;;;;;0.00;0.00;;;;;9.88;100.00;99812.47;5040046;28;45356;-81
2023/11/10 04:58:43;;;;;;;;;0.00;0.00;;;;;9.93;100.00;99814.03;5040530;28;45421;-80
2023/11/10 05:01:09;;;;;;;;;1.00;0.00;;;;;9.86;100.00;99814.28;5058030;28;45517;-82
2023/11/10 05:03:34;;;;;;;;;0.00;0.00;;;;;9.91;100.00;99801.09;5038641;28;75710;-81
2023/11/10 05:06:01;;;;;;;;;0.00;0.00;;;;;9.88;100.00;99807.25;5057056;28;73294;-81
2023/11/10 05:08:27;;;;;;;;;0.00;0.00;;;;;9.92;100.00;99812.31;5062250;28;45353;-81
2023/11/10 05:10:52;;;;;;;;;0.00;0.00;;;;;9.83;100.00;99814.41;5059397;28;69269;-80
2023/11/10 05:13:18;;;;;;;;;0.00;0.00;;;;;9.88;100.00;99807.25;5059959;28;47068;-81
2023/11/10 05:15:43;;;;;;;;;0.00;0.00;;;;;9.89;100.00;99818.50;5078458;28;45445;-81
2023/11/10 05:18:12;;;;;;;;;0.00;0.00;;;;;9.93;100.00;99820.06;5060167;28;45484;-81
2023/11/10 05:20:37;;;;;;;;;0.00;0.00;;;;;9.99;100.00;99816.34;5077898;28;45387;-81
2023/11/10 05:23:02;;;;;;;;;0.00;0.00;;;;;9.97;100.00;99813.81;5059464;28;54396;-81
2023/11/10 05:25:28;;;;;;;;;0.00;0.00;;;;;10.03;100.00;99812.75;5058458;28;72020;-80
2023/11/10 05:27:54;;;;;;;;;0.00;0.00;;;;;10.06;100.00;99812.59;5077707;28;45404;-81
2023/11/10 05:30:20;;;;;;;;;0.00;0.00;;;;;10.06;100.00;99803.03;5093598;27;45406;-81
2023/11/10 05:32:47;;;;;;;;;0.00;0.00;;;;;10.05;100.00;99801.38;5077780;28;46296;-81
2023/11/10 05:35:12;;;;;;;;;0.00;0.00;;;;;10.12;100.00;99801.94;5076207;28;45412;-81
2023/11/10 05:37:38;;;;;;;;;0.00;0.00;;;;;10.14;100.00;99800.16;5093135;27;45333;-80
2023/11/10 05:40:03;;;;;;;;;2.00;0.00;;;;;10.07;100.00;99790.91;5092808;27;57033;-81
2023/11/10 05:42:29;;;;;;;;;0.00;0.00;;;;;10.05;100.00;99787.53;5077539;28;46251;-81
2023/11/10 05:44:54;;;;;;;;;0.00;0.00;;;;;10.05;100.00;99800.53;5077441;27;45253;-81
2023/11/10 05:47:19;;;;;;;;;0.00;0.00;;;;;10.06;100.00;99804.81;5092690;27;66334;-81
2023/11/10 05:49:45;;;;;;;;;0.00;0.00;;;;;10.06;100.00;99797.84;5077607;28;45322;-81
2023/11/10 05:52:11;;;;;;;;;0.00;0.00;;;;;10.03;100.00;99807.56;5091795;27;73684;-80
2023/11/10 05:54:37;;;;;;;;;0.00;0.00;;;;;10.01;100.00;99805.00;5092877;27;45275;-80
2023/11/10 05:57:02;;;;;;;;;1.00;0.00;;;;;9.99;100.00;99804.22;5077858;28;45482;-81
2023/11/10 05:59:28;;;;;;;;;0.00;0.00;;;;;9.99;100.00;99805.97;5077346;28;45414;-81
2023/11/10 06:01:57;;;;;;;;;0.00;0.00;;;;;9.93;100.00;99807.06;5093303;27;46558;-82
2023/11/10 06:04:25;;;;;;;;;0.00;0.00;;;;;10.03;100.00;99797.97;5059411;28;45349;-81
2023/11/10 06:06:50;;;;;;;;;0.00;0.00;;;;;9.93;100.00;99801.84;5092515;27;45468;-81
2023/11/10 06:09:16;;;;;;;;;0.00;0.00;;;;;9.95;100.00;99796.59;5083615;27;45320;-81
2023/11/10 06:11:46;;;;;;;;;0.00;0.00;;;;;9.91;100.00;99803.69;5076910;28;45418;-81
2023/11/10 06:14:11;;;;;;;;;0.00;0.00;;;;;9.88;100.00;99824.63;5077139;28;45309;-81
2023/11/10 06:16:40;;;;;;;;;0.00;0.00;;;;;9.91;100.00;99824.47;5075721;28;45342;-81
2023/11/10 06:19:06;;;;;;;;;0.00;0.00;;;;;9.95;100.00;99814.81;5059212;28;45300;-81
2023/11/10 06:21:32;;;;;;;;;0.00;0.00;;;;;9.95;100.00;99814.81;5076440;28;45519;-80
2023/11/10 06:23:57;;;;;;;;;0.00;0.00;;;;;10.00;100.00;99811.09;5076568;28;45410;-80
2023/11/10 06:26:23;;;;;;;;;0.00;0.00;;;;;9.99;100.00;99808.56;5031568;28;45739;-81
2023/11/10 06:28:50;;;;;;;;;0.00;0.00;;;;;9.94;100.00;99808.75;5039086;28;45363;-81
2023/11/10 06:31:16;;;;;;;;;0.00;0.00;;;;;9.97;100.00;99805.19;5038675;28;47300;-81
2023/11/10 06:33:42;;;;;;;;;0.00;0.00;;;;;9.91;100.00;99815.84;5055934;28;45437;-81
2023/11/10 06:36:08;;;;;;;;;0.00;0.00;;;;;9.93;100.00;99809.66;5038029;28;45494;-81
2023/11/10 06:38:41;;;;;;;;;0.00;0.00;;;;;9.88;100.00;99793.44;5038475;28;45616;-87
2023/11/10 06:41:06;;;;;;;;;0.00;0.00;;;;;9.90;100.00;99796.81;5037826;28;70587;-85
2023/11/10 06:43:32;;;;;;;;;0.00;0.00;;;;;9.95;100.00;99804.41;5021432;27;45924;-83
2023/11/10 06:48:55;;;;;;;;;0.00;0.00;;;;;9.85;100.00;99811.75;5051352;28;45302;-85
2023/11/10 06:51:21;;;;;;;;;0.00;0.00;;;;;10.00;100.00;99812.88;5054770;28;47220;-83
2023/11/10 06:53:46;;;;;;;;;0.00;0.00;;;;;10.04;100.00;99811.81;5037763;28;45383;-84
2023/11/10 06:56:11;;;;;;;;;0.00;0.00;;;;;10.09;100.00;99802.09;5046357;28;54856;-84
2023/11/10 06:58:37;;;;;;;;;0.00;0.00;;;;;10.07;100.00;99820.34;5075757;28;45657;-83
2023/11/10 07:01:05;;;;;;;;;0.00;0.00;;;;;10.08;100.00;99815.97;5076096;28;51233;-85
2023/11/10 07:03:31;;;;;;;;;0.00;0.00;;;;;10.11;100.00;99807.22;5074394;28;45371;-81
2023/11/10 07:05:56;;;;;;;;;0.00;0.00;;;;;10.11;100.00;99802.88;5056479;28;71222;-82
2023/11/10 07:08:21;;;;;;;;;0.00;0.00;;;;;10.11;100.00;99804.63;5056842;28;70319;-81
2023/11/10 07:10:53;;;;;;;;;0.00;0.00;;;;;10.05;100.00;99801.38;5054080;28;45468;-82
2023/11/10 07:13:18;;;;;;;;;0.00;0.00;;;;;10.01;100.00;99799.81;5063847;28;45490;-82
2023/11/10 07:15:45;;;;;;;;;0.00;0.00;;;;;9.96;100.00;99798.31;5056589;28;45472;-81
2023/11/10 07:18:11;;;;;;;;;0.00;0.00;;;;;9.94;100.00;99795.78;5054751;28;45668;-81
2023/11/10 07:20:37;;;;;;;;;0.00;0.00;;;;;10.02;100.00;99787.66;5075403;28;46316;-81
2023/11/10 07:23:03;;;;;;;;;0.00;0.00;;;;;10.00;100.00;99784.25;5075803;28;45331;-80
2023/11/10 07:25:28;;;;;;;;;0.00;0.00;;;;;9.92;100.00;99775.94;5057721;28;45540;-81
2023/11/10 07:27:55;;;;;;;;;2.25;0.00;;;;;9.90;100.00;99786.41;5057310;28;45549;-82
2023/11/10 07:30:21;;;;;;;;;0.00;0.00;;;;;9.95;100.00;99779.25;5062985;28;45489;-82
2023/11/10 07:32:47;;;;;;;;;0.00;0.00;;;;;10.07;100.00;99788.31;5037716;28;45375;-81
2023/11/10 07:35:13;;;;;;;;;0.00;0.00;;;;;10.05;100.00;99785.75;5055291;28;45681;-81
2023/11/10 07:37:44;;;;;;;;;0.00;0.00;;;;;10.16;100.00;99789.66;5055529;28;45278;-81
2023/11/10 07:40:14;;;;;;;;;0.00;0.00;;;;;10.20;100.00;99781.66;5037390;28;45289;-81
2023/11/10 07:42:42;;;;;;;;;0.00;0.00;;;;;10.21;100.00;99783.34;5053973;28;45712;-82
2023/11/10 07:45:12;;;;;;;;;0.00;0.00;;;;;10.23;100.00;99791.09;5072470;28;45414;-81
2023/11/10 07:47:37;;;;;;;;;0.00;0.00;;;;;10.26;100.00;99796.16;5078858;28;45502;-80
2023/11/10 07:50:03;;;;;;;;;0.00;0.00;;;;;10.35;100.00;99789.78;5078039;28;72867;-81
2023/11/10 07:52:30;;;;;;;;;0.00;0.00;;;;;10.46;100.00;99774.53;5081038;27;45482;-81
2023/11/10 07:54:55;;;;;;;;;0.00;0.00;;;;;10.53;100.00;99780.28;5083828;27;45428;-81
2023/11/10 07:57:20;;;;;;;;;1.00;0.00;;;;;10.67;100.00;99777.94;5083928;27;68412;-81
2023/11/10 07:59:46;;;;;;;;;0.00;0.00;;;;;10.75;100.00;99777.59;5080606;27;46448;-81
2023/11/10 08:02:11;;;;;;;;;0.00;0.00;;;;;10.77;100.00;99781.84;5084405;27;45559;-81
2023/11/10 08:04:38;;;;;;;;;0.00;0.00;;;;;10.85;100.00;99779.72;5108068;27;69382;-82
2023/11/10 08:07:06;;;;;;;;;0.00;0.00;;;;;10.90;100.00;99776.91;5097566;27;45419;-82
2023/11/10 08:09:33;;;;;;;;;0.00;0.00;;;;;10.88;100.00;99777.88;5080489;27;46285;-83
2023/11/10 08:11:59;;;;;;;;;0.00;0.00;;;;;11.08;100.00;99774.38;5076967;27;45579;-81
2023/11/10 08:14:24;;;;;;;;;0.00;0.00;;;;;11.11;100.00;99771.63;5094233;27;69598;-81
2023/11/10 08:16:49;;;;;;;;;0.00;0.00;;;;;11.11;100.00;99771.63;5092440;27;45741;-82
2023/11/10 08:19:15;;;;;;;;;0.00;0.00;;;;;11.19;100.00;99765.13;5106671;27;76101;-81
2023/11/10 08:21:40;;;;;;;;;0.00;0.00;;;;;11.19;100.00;99785.97;5088188;27;71360;-82
2023/11/10 08:24:06;;;;;;;;;0.00;0.00;;;;;11.23;100.00;99778.84;5098421;27;52297;-82
2023/11/10 08:26:31;;;;;;;;;0.00;0.00;;;;;11.24;100.00;99790.97;5078900;27;45728;-82
2023/11/10 08:28:57;;;;;;;;;0.00;0.00;;;;;11.21;100.00;99791.94;5087014;27;46006;-82
2023/11/10 08:31:22;;;;;;;;;0.00;0.00;;;;;11.41;100.00;99783.19;5078307;27;71116;-82
2023/11/10 08:33:48;;;;;;;;;0.00;0.00;;;;;11.37;100.00;99789.47;5063181;27;45311;-80
2023/11/10 08:36:13;;;;;;;;;0.00;0.00;;;;;11.54;100.00;99788.66;5082344;27;45484;-81
2023/11/10 08:38:38;;;;;;;;;0.67;0.67;;;;;11.66;100.00;99787.22;5103341;27;59238;-82
2023/11/10 08:41:04;;;;;;;;;0.00;0.00;;;;;11.73;100.00;99811.25;5089259;27;61185;-82
2023/11/10 08:43:29;;;;;;;;;0.00;0.00;;;;;11.78;100.00;99807.50;5091193;27;45464;-81
2023/11/10 08:45:54;;;;;;;;;0.00;0.00;;;;;11.82;100.00;99811.63;5071627;28;45260;-83
2023/11/10 08:48:20;;;;;;;;;0.00;0.00;;;;;11.77;100.00;99813.63;5055821;27;75762;-82
2023/11/10 08:50:45;;;;;;;;;0.00;0.00;;;;;11.69;100.00;99827.97;5078844;27;74359;-82
2023/11/10 08:53:10;;;;;;;;;0.00;0.00;;;;;11.76;100.00;99811.09;5059083;28;53068;-81
2023/11/10 08:55:39;;;;;;;;;0.00;0.00;;;;;11.75;100.00;99810.25;5086210;27;69377;-81
2023/11/10 08:58:04;;;;;;;;;0.00;0.00;;;;;11.74;100.00;99811.19;5076220;27;74274;-82
2023/11/10 09:00:29;;;;;;;;;0.00;0.00;;;;;11.65;100.00;99803.81;5043467;27;45693;-81
2023/11/10 09:02:56;;;;;;;;;0.67;0.00;;;;;11.57;100.00;99812.00;5059327;28;65191;-81
2023/11/10 09:05:22;;;;;;;;;0.00;0.00;;;;;11.58;100.00;99811.06;5044333;28;45469;-81
2023/11/10 09:07:47;;;;;;;;;0.00;0.00;;;;;11.53;100.00;99806.97;5077536;27;46609;-82
2023/11/10 09:10:13;;;;;;;;;0.00;0.00;;;;;11.62;100.00;99803.94;5058898;28;45445;-81
2023/11/10 09:12:42;;;;;;;;;0.00;0.00;;;;;11.73;100.00;99808.63;5058361;28;45417;-80
2023/11/10 09:15:11;;;;;;;;;0.00;0.00;;;;;11.85;100.00;99797.63;5076761;28;45359;-82
2023/11/10 09:17:37;;;;;;;;;0.00;0.00;;;;;11.87;100.00;99816.63;5059637;28;46403;-82
2023/11/10 09:20:02;;;;;;;;;0.00;0.00;;;;;11.96;100.00;99810.13;5077059;28;45429;-82
2023/11/10 09:22:28;;;;;;;;;0.00;0.00;;;;;12.03;100.00;99795.88;5058875;28;45670;-82
2023/11/10 09:24:53;;;;;;;;;0.00;0.00;;;;;12.09;100.00;99807.75;5058485;28;45480;-81
2023/11/10 09:27:18;;;;;;;;;0.00;0.00;;;;;12.17;100.00;99796.03;5058595;28;47976;-81
2023/11/10 09:29:45;;;;;;;;;0.00;0.00;;;;;12.27;100.00;99798.19;5058745;28;45373;-82
2023/11/10 09:32:10;;;;;;;;;0.00;0.00;;;;;12.48;100.00;99788.41;5076856;28;45343;-82
2023/11/10 09:34:41;;;;;;;;;0.00;0.00;;;;;12.63;100.00;99782.41;5042323;28;45236;-82
2023/11/10 09:37:07;;;;;;;;;0.00;0.00;;;;;12.73;100.00;99796.63;5076936;28;47324;-82
2023/11/10 09:39:32;;;;;;;;;0.00;0.00;;;;;12.72;100.00;99788.88;5076677;28;58589;-83
2023/11/10 09:42:05;;;;;;;;;0.00;0.00;;;;;12.88;100.00;99781.91;5076921;28;45307;-82
2023/11/10 09:44:30;;;;;;;;;0.00;0.00;;;;;12.88;100.00;99779.31;5086677;27;45380;-83
2023/11/10 09:46:56;;;;;;;;;0.00;0.00;;;;;12.87;100.00;99771.53;5074974;27;70101;-81
2023/11/10 09:49:22;;;;;;;;;0.00;0.00;;;;;12.91;100.00;99765.25;5057864;28;45440;-81
2023/11/10 09:51:49;;;;;;;;;0.00;0.00;;;;;12.91;100.00;99775.69;5057795;28;67900;-82
2023/11/10 09:54:14;;;;;;;;;0.00;0.00;;;;;12.96;100.00;99771.91;5058705;28;45349;-82
2023/11/10 09:56:41;;;;;;;;;0.00;0.00;;;;;12.95;100.00;99772.81;5057078;28;75564;-83
2023/11/10 09:59:06;;;;;;;;;0.00;0.00;;;;;13.12;100.00;99786.75;5057426;28;72697;-82
2023/11/10 10:01:32;;;;;;;;;0.00;0.00;;;;;13.16;100.00;99790.88;5076334;28;45341;-83
2023/11/10 10:03:58;;;;;;;;;0.00;0.00;;;;;13.29;100.00;99784.03;5058424;28;45431;-80
2023/11/10 10:06:24;;;;;;;;;0.00;0.00;;;;;13.39;100.00;99779.19;5058219;27;46165;-82
2023/11/10 10:08:53;;;;;;;;;0.00;0.00;;;;;13.50;100.00;99773.34;5057029;28;45582;-82
2023/11/10 10:11:19;;;;;;;;;0.00;0.00;;;;;13.58;100.00;99762.44;5076343;27;45448;-83
2023/11/10 10:13:45;;;;;;;;;0.50;0.50;;;;;13.72;100.00;99766.00;5058155;28;45800;-81
2023/11/10 10:16:11;;;;;;;;;1.00;0.00;;;;;13.81;100.00;99766.38;5050151;28;45971;-81
2023/11/10 10:18:43;;;;;;;;;0.00;0.00;;;;;13.91;100.00;99762.28;5058180;28;45366;-81
2023/11/10 10:21:08;;;;;;;;;0.00;0.00;;;;;13.94;100.00;99772.56;5058762;28;45453;-82
2023/11/10 10:23:35;;;;;;;;;0.00;0.00;;;;;14.10;100.00;99759.44;5076021;27;49322;-81
2023/11/10 10:26:01;;;;;;;;;0.00;0.00;;;;;14.19;100.00;99764.13;5076226;28;46239;-82
2023/11/10 10:28:26;;;;;;;;;0.00;0.00;;;;;14.24;100.00;99748.13;5057750;28;45409;-82
2023/11/10 10:30:52;;;;;;;;;0.00;0.00;;;;;14.34;100.00;99757.13;5075569;27;45381;-81
2023/11/10 10:33:17;;;;;;;;;0.00;0.00;;;;;14.37;100.00;99751.69;5061487;28;56823;-81
2023/11/10 10:35:43;;;;;;;;;0.00;0.00;;;;;14.39;100.00;99747.22;5040631;28;47203;-82
2023/11/10 10:38:09;;;;;;;;;0.00;0.00;;;;;14.63;100.00;99750.13;5080392;27;45343;-81
2023/11/10 10:40:35;;;;;;;;;0.00;0.00;;;;;14.93;100.00;99749.16;5084729;27;45562;-81
2023/11/10 10:43:05;;;;;;;;;0.00;0.00;;;;;15.39;100.00;99737.53;5060187;27;45508;-81
2023/11/10 10:45:32;;;;;;;;;0.00;0.00;;;;;15.85;100.00;99745.88;5086954;27;46341;-81
2023/11/10 10:47:59;;;;;;;;;0.00;0.00;;;;;16.62;100.00;99731.91;5078296;27;45432;-82
2023/11/10 10:50:26;;;;;;;;;0.00;0.00;;;;;16.95;100.00;99726.09;5095809;27;45503;-79
2023/11/10 10:52:54;;;;;;;;;0.00;0.00;;;;;17.33;100.00;99727.75;5088743;27;45420;-79
2023/11/10 10:55:21;;;;;;;;;0.00;0.00;;;;;17.63;100.00;99725.59;5076900;27;47324;-82
2023/11/10 10:57:48;;;;;;;;;0.00;0.00;;;;;17.69;100.00;99727.78;5076740;27;67701;-82
2023/11/10 11:00:16;;;;;;;;;0.00;0.00;;;;;17.54;100.00;99729.75;5096404;27;46671;-82
2023/11/10 11:02:43;;;;;;;;;0.00;0.00;;;;;17.55;100.00;99715.63;5068383;27;45415;-82
2023/11/10 11:05:31;;;;;;;;;0.00;0.00;;;;;17.39;100.00;99714.13;5057098;28;46215;-81
2023/11/10 11:08:15;;;;;;;;;0.00;0.00;;;;;17.59;100.00;99714.47;5087177;27;45326;-82
2023/11/10 11:11:05;;;;;;;;;0.00;0.00;;;;;17.79;100.00;99705.91;5077491;27;45345;-81
2023/11/10 11:14:05;;;;;;;;;0.00;0.00;;;;;18.70;100.00;99688.41;5080213;27;45520;-81
2023/11/10 11:16:43;;;;;;;;;0.00;0.00;;;;;18.59;100.00;99704.22;5075502;28;46241;-82
2023/11/10 11:19:25;;;;;;;;;0.00;0.00;;;;;18.85;100.00;99694.28;5061743;27;46283;-81
2023/11/10 11:21:52;;;;;;;;;0.00;0.00;;;;;19.31;100.00;99679.13;5081227;27;45393;-82
2023/11/10 11:24:19;;;;;;;;;0.00;0.00;;;;;20.50;100.00;99673.47;5081446;27;45324;-82
2023/11/10 11:26:58;;;;;;;;;0.00;0.00;;;;;20.93;100.00;99674.16;5080908;27;46469;-82